createdAt,value
2023-05-14T00:01:59.326Z,40.17
2023-05-14T00:04:29.922Z,40.35
2023-05-14T00:07:01.129Z,40.42
2023-05-14T00:09:31.776Z,40.37
2023-05-14T00:12:02.520Z,40.32
2023-05-14T00:14:33.216Z,40.38
2023-05-14T00:17:03.966Z,40.48
2023-05-14T00:19:34.681Z,40.52
2023-05-14T00:22:05.713Z,40.60
2023-05-14T00:24:40.842Z,40.51
2023-05-14T00:27:11.616Z,40.64
2023-05-14T00:29:42.429Z,40.67
2023-05-14T00:32:13.218Z,40.91
2023-05-14T00:34:43.959Z,40.92
2023-05-14T00:37:14.743Z,40.94
2023-05-14T00:39:45.693Z,41.04
2023-05-14T00:42:16.518Z,41.10
2023-05-14T00:44:47.383Z,41.15
2023-05-14T00:47:18.513Z,41.30
2023-05-14T00:49:49.267Z,41.31
2023-05-14T00:52:20.043Z,41.47
2023-05-14T00:54:50.912Z,41.61
2023-05-14T00:57:21.742Z,41.58
2023-05-14T00:59:52.445Z,41.81
2023-05-14T01:02:23.352Z,41.82
2023-05-14T01:04:54.237Z,41.88
2023-05-14T01:07:28.436Z,41.89
2023-05-14T01:10:01.747Z,42.08
2023-05-14T01:12:36.078Z,42.11
2023-05-14T01:15:09.288Z,42.05
2023-05-14T01:17:40.734Z,42.16
2023-05-14T01:20:12.165Z,42.31
2023-05-14T01:22:42.974Z,42.20
2023-05-14T01:25:13.852Z,42.36
2023-05-14T01:27:47.371Z,42.24
2023-05-14T01:30:19.442Z,42.29
2023-05-14T01:32:50.456Z,42.44
2023-05-14T01:35:21.461Z,42.52
2023-05-14T01:37:52.107Z,42.48
2023-05-14T01:40:23.139Z,42.57
2023-05-14T01:42:54.584Z,42.57
2023-05-14T01:45:25.605Z,42.67
2023-05-14T01:47:56.565Z,42.84
2023-05-14T01:50:27.264Z,42.90
2023-05-14T01:52:58.255Z,42.99
2023-05-14T01:55:28.989Z,42.98
2023-05-14T01:57:59.868Z,42.97
2023-05-14T02:00:30.685Z,43.20
2023-05-14T02:03:01.418Z,43.24
2023-05-14T02:05:32.270Z,43.30
2023-05-14T02:08:03.123Z,43.32
2023-05-14T02:10:33.892Z,43.36
2023-05-14T02:13:04.716Z,43.40
2023-05-14T02:15:35.545Z,43.45
2023-05-14T02:18:06.244Z,43.52
2023-05-14T02:20:37.036Z,43.49
2023-05-14T02:23:07.885Z,43.46
2023-05-14T02:25:38.863Z,43.70
2023-05-14T02:28:09.593Z,43.59
2023-05-14T02:30:40.467Z,43.71
2023-05-14T02:33:11.320Z,43.71
2023-05-14T02:35:42.431Z,43.73
2023-05-14T02:38:13.249Z,43.91
2023-05-14T02:40:44.097Z,43.92
2023-05-14T02:43:14.708Z,43.93
2023-05-14T02:45:45.564Z,43.89
2023-05-14T02:48:16.288Z,43.96
2023-05-14T02:50:47.021Z,44.02
2023-05-14T02:53:17.675Z,44.10
2023-05-14T02:55:48.456Z,44.04
2023-05-14T02:58:19.273Z,44.08
2023-05-14T03:00:56.570Z,44.03
2023-05-14T03:03:28.031Z,44.06
2023-05-14T03:05:59.039Z,44.18
2023-05-14T03:08:29.771Z,44.20
2023-05-14T03:11:00.543Z,44.18
2023-05-14T03:13:31.133Z,44.27
2023-05-14T03:16:01.912Z,44.34
2023-05-14T03:18:33.524Z,44.33
2023-05-14T03:21:04.614Z,44.36
2023-05-14T03:23:35.876Z,44.42
2023-05-14T03:26:06.678Z,44.41
2023-05-14T03:28:37.358Z,44.45
2023-05-14T03:31:08.278Z,44.50
2023-05-14T03:33:39.030Z,44.45
2023-05-14T03:36:10.024Z,44.55
2023-05-14T03:38:40.784Z,44.63
2023-05-14T03:41:11.452Z,44.70
2023-05-14T03:43:42.122Z,44.83
2023-05-14T03:46:12.916Z,44.80
2023-05-14T03:48:43.931Z,44.92
2023-05-14T03:51:14.738Z,44.91
2023-05-14T03:53:45.551Z,44.95
2023-05-14T03:56:16.406Z,44.94
2023-05-14T03:58:47.086Z,44.92
2023-05-14T04:01:17.872Z,44.90
2023-05-14T04:03:48.788Z,45.11
2023-05-14T04:06:19.814Z,45.01
2023-05-14T04:08:50.536Z,45.05
2023-05-14T04:11:21.414Z,45.17
2023-05-14T04:13:52.006Z,45.13
2023-05-14T04:16:22.919Z,45.18
2023-05-14T04:18:53.730Z,45.24
2023-05-14T04:21:24.520Z,45.37
2023-05-14T04:23:55.262Z,45.39
2023-05-14T04:26:26.267Z,45.32
2023-05-14T04:28:57.006Z,45.33
2023-05-14T04:31:27.758Z,45.38
2023-05-14T04:33:58.394Z,45.52
2023-05-14T04:36:29.038Z,45.38
2023-05-14T04:38:59.879Z,45.45
2023-05-14T04:41:30.672Z,45.37
2023-05-14T04:44:01.256Z,45.46
2023-05-14T04:46:32.166Z,45.35
2023-05-14T04:49:02.905Z,45.45
2023-05-14T04:51:33.613Z,45.35
2023-05-14T04:54:04.284Z,45.44
2023-05-14T04:56:35.258Z,45.57
2023-05-14T04:59:06.514Z,45.58
2023-05-14T05:01:37.150Z,45.68
2023-05-14T05:04:08.218Z,45.81
2023-05-14T05:06:38.967Z,45.78
2023-05-14T05:09:10.112Z,45.76
2023-05-14T05:11:40.779Z,45.76
2023-05-14T05:14:11.376Z,45.81
2023-05-14T05:16:42.115Z,45.71
2023-05-14T05:19:13.146Z,45.74
2023-05-14T05:21:43.991Z,45.65
2023-05-14T05:24:15.126Z,45.83
2023-05-14T05:26:46.279Z,45.88
2023-05-14T05:29:17.137Z,45.67
2023-05-14T05:31:47.912Z,45.70
2023-05-14T05:34:19.595Z,45.64
2023-05-14T05:36:50.319Z,45.47
2023-05-14T05:39:20.959Z,45.38
2023-05-14T05:41:51.662Z,45.39
2023-05-14T05:44:22.463Z,45.39
2023-05-14T05:46:53.240Z,45.37
2023-05-14T05:49:23.977Z,45.39
2023-05-14T05:51:54.816Z,45.51
2023-05-14T05:54:27.342Z,45.43
2023-05-14T05:56:58.228Z,45.45
2023-05-14T05:59:29.033Z,45.56
2023-05-14T06:01:59.781Z,45.47
2023-05-14T06:04:30.686Z,45.48
2023-05-14T06:07:01.356Z,45.45
2023-05-14T06:09:31.882Z,45.39
2023-05-14T06:12:02.831Z,45.39
2023-05-14T06:14:33.644Z,45.42
2023-05-14T06:17:04.541Z,45.50
2023-05-14T06:19:35.474Z,45.42
2023-05-14T06:22:06.539Z,45.23
2023-05-14T06:24:37.213Z,45.20
2023-05-14T06:27:08.162Z,45.18
2023-05-14T06:29:39.072Z,44.98
2023-05-14T06:32:27.253Z,44.98
2023-05-14T06:34:58.037Z,44.99
2023-05-14T06:37:29.037Z,44.90
2023-05-14T06:39:59.944Z,44.84
2023-05-14T06:42:30.918Z,44.84
2023-05-14T06:45:01.924Z,44.72
2023-05-14T06:47:32.811Z,44.62
2023-05-14T06:50:03.830Z,44.48
2023-05-14T06:52:34.628Z,44.41
2023-05-14T06:55:06.801Z,44.36
2023-05-14T06:57:39.918Z,44.28
2023-05-14T07:00:12.484Z,43.98
2023-05-14T07:02:43.394Z,43.77
2023-05-14T07:05:14.919Z,43.55
2023-05-14T07:07:45.638Z,43.38
2023-05-14T07:10:16.334Z,43.16
2023-05-14T07:13:58.716Z,43.03
2023-05-14T07:16:29.371Z,43.11
2023-05-14T07:19:00.300Z,43.09
2023-05-14T07:21:31.854Z,42.85
2023-05-14T07:24:02.701Z,42.80
2023-05-14T07:26:33.427Z,42.67
2023-05-14T07:29:04.050Z,42.89
2023-05-14T07:31:34.857Z,42.91
2023-05-14T07:34:05.839Z,42.86
2023-05-14T07:36:54.017Z,42.63
2023-05-14T07:39:24.624Z,42.54
2023-05-14T07:41:55.470Z,42.40
2023-05-14T07:44:26.184Z,42.43
2023-05-14T07:46:56.897Z,42.33
2023-05-14T07:49:27.589Z,42.20
2023-05-14T07:51:58.794Z,42.00
2023-05-14T07:54:29.569Z,41.84
2023-05-14T07:57:00.386Z,41.69
2023-05-14T07:59:31.370Z,41.62
2023-05-14T08:02:02.125Z,41.39
2023-05-14T08:04:32.828Z,41.28
2023-05-14T08:07:03.610Z,41.22
2023-05-14T08:09:34.320Z,40.95
2023-05-14T08:12:05.404Z,40.83
2023-05-14T08:14:36.238Z,40.71
2023-05-14T08:17:07.335Z,40.43
2023-05-14T08:19:37.925Z,40.07
2023-05-14T08:22:08.496Z,40.01
2023-05-14T08:24:39.171Z,39.98
2023-05-14T08:27:09.821Z,39.96
2023-05-14T08:29:40.660Z,39.74
2023-05-14T08:32:22.000Z,39.37
2023-05-14T08:34:54.028Z,39.33
2023-05-14T08:37:24.779Z,38.94
2023-05-14T08:39:56.386Z,38.89
2023-05-14T08:42:27.277Z,38.51
2023-05-14T08:45:01.532Z,38.61
2023-05-14T08:47:34.650Z,38.63
2023-05-14T08:50:07.810Z,38.37
2023-05-14T08:52:38.447Z,38.18
2023-05-14T08:55:09.914Z,38.18
2023-05-14T08:57:40.801Z,38.05
2023-05-14T09:00:12.552Z,37.63
2023-05-14T09:02:43.547Z,37.51
2023-05-14T09:05:14.225Z,37.36
2023-05-14T09:07:44.920Z,37.36
2023-05-14T09:10:15.570Z,37.18
2023-05-14T09:12:46.312Z,36.83
2023-05-14T09:15:17.168Z,36.79
2023-05-14T09:17:48.742Z,36.63
2023-05-14T09:20:19.639Z,36.64
2023-05-14T09:22:50.313Z,36.30
2023-05-14T09:25:23.566Z,36.05
2023-05-14T09:27:58.684Z,36.33
2023-05-14T09:30:30.264Z,36.07
2023-05-14T09:33:01.753Z,36.08
2023-05-14T09:35:33.622Z,35.63
2023-05-14T09:38:04.189Z,35.53
2023-05-14T09:40:35.006Z,35.35
2023-05-14T09:43:06.395Z,35.48
2023-05-14T09:45:37.759Z,35.37
2023-05-14T09:48:09.487Z,35.11
2023-05-14T09:50:44.383Z,35.17
2023-05-14T09:53:15.447Z,35.18
2023-05-14T09:55:46.512Z,35.14
2023-05-14T09:58:17.228Z,34.73
2023-05-14T10:00:48.130Z,34.50
2023-05-14T10:03:20.072Z,34.16
2023-05-14T10:05:51.547Z,33.84
2023-05-14T10:08:23.557Z,33.88
2023-05-14T10:10:54.820Z,33.50
2023-05-14T10:13:26.534Z,33.38
2023-05-14T10:15:59.276Z,33.31
2023-05-14T10:18:31.247Z,32.73
2023-05-14T10:21:04.726Z,32.70
2023-05-14T10:23:37.819Z,32.91
2023-05-14T10:26:08.603Z,32.89
2023-05-14T10:28:39.283Z,32.89
2023-05-14T10:31:10.465Z,32.56
2023-05-14T10:33:50.468Z,32.10
2023-05-14T10:36:23.513Z,31.90
2023-05-14T10:38:58.615Z,31.74
2023-05-14T10:41:29.398Z,31.80
2023-05-14T10:44:00.926Z,31.66
2023-05-14T10:46:31.842Z,31.70
2023-05-14T10:49:02.641Z,31.79
2023-05-14T10:51:33.606Z,31.66
2023-05-14T10:54:04.489Z,31.52
2023-05-14T10:56:35.473Z,31.41
2023-05-14T10:59:06.242Z,31.60
2023-05-14T11:01:37.109Z,31.45
2023-05-14T11:04:09.159Z,31.17
2023-05-14T11:06:40.027Z,30.82
2023-05-14T11:09:10.788Z,30.91
2023-05-14T11:11:41.638Z,30.97
2023-05-14T11:14:12.289Z,30.88
2023-05-14T11:16:42.974Z,30.98
2023-05-14T11:19:13.904Z,30.72
2023-05-14T11:21:44.682Z,30.57
2023-05-14T11:24:15.348Z,30.53
2023-05-14T11:26:46.166Z,30.58
2023-05-14T11:29:16.962Z,30.38
2023-05-14T11:31:47.623Z,30.19
2023-05-14T11:34:18.361Z,30.33
2023-05-14T11:36:49.460Z,30.15
2023-05-14T11:39:20.771Z,30.06
2023-05-14T11:41:51.374Z,30.09
2023-05-14T11:44:22.222Z,30.22
2023-05-14T11:46:59.543Z,30.04
2023-05-14T11:49:30.251Z,30.00
2023-05-14T11:52:01.281Z,29.76
2023-05-14T11:54:32.110Z,29.50
2023-05-14T11:57:03.956Z,29.53
2023-05-14T11:59:34.495Z,29.72
2023-05-14T12:02:05.789Z,29.69
2023-05-14T12:04:36.632Z,29.41
2023-05-14T12:07:10.425Z,29.64
2023-05-14T12:09:45.069Z,29.34
2023-05-14T12:12:16.359Z,29.18
2023-05-14T12:14:47.318Z,28.90
2023-05-14T12:17:18.577Z,28.98
2023-05-14T12:19:50.307Z,29.04
2023-05-14T12:22:21.757Z,29.15
2023-05-14T12:24:56.257Z,28.99
2023-05-14T12:27:28.477Z,29.00
2023-05-14T12:30:19.152Z,28.61
2023-05-14T12:32:53.144Z,28.57
2023-05-14T12:35:24.326Z,28.46
2023-05-14T12:37:55.993Z,28.81
2023-05-14T12:40:26.862Z,28.67
2023-05-14T12:42:57.782Z,28.51
2023-05-14T12:45:28.581Z,28.55
2023-05-14T12:47:59.425Z,28.26
2023-05-14T12:50:30.350Z,28.60
2023-05-14T12:53:01.090Z,28.64
2023-05-14T12:55:31.858Z,28.67
2023-05-14T12:58:02.758Z,28.78
2023-05-14T13:00:33.480Z,28.52
2023-05-14T13:03:04.323Z,28.42
2023-05-14T13:05:35.168Z,28.29
2023-05-14T13:08:06.566Z,28.25
2023-05-14T13:10:37.364Z,28.47
2023-05-14T13:13:11.692Z,28.21
2023-05-14T13:15:42.403Z,28.14
2023-05-14T13:18:13.226Z,28.08
2023-05-14T13:20:43.805Z,27.93
2023-05-14T13:23:16.694Z,28.06
2023-05-14T13:25:49.715Z,27.99
2023-05-14T13:28:21.105Z,28.11
2023-05-14T13:31:07.635Z,27.76
2023-05-14T13:33:42.190Z,27.90
2023-05-14T13:36:14.368Z,27.84
2023-05-14T13:38:47.337Z,28.03
2023-05-14T13:41:18.036Z,27.80
2023-05-14T13:43:48.956Z,27.82
2023-05-14T13:46:19.754Z,27.64
2023-05-14T13:48:51.114Z,27.66
2023-05-14T13:51:21.770Z,27.91
2023-05-14T13:56:29.041Z,27.70
2023-05-14T13:59:00.009Z,27.87
2023-05-14T14:01:34.420Z,27.70
2023-05-14T14:04:06.336Z,27.71
2023-05-14T14:06:40.794Z,27.48
2023-05-14T14:09:13.654Z,27.64
2023-05-14T14:11:44.521Z,27.66
2023-05-14T14:14:22.499Z,27.47
2023-05-14T14:16:53.048Z,27.43
2023-05-14T14:19:25.822Z,27.54
2023-05-14T14:21:56.607Z,27.36
2023-05-14T14:24:29.587Z,27.41
2023-05-14T14:27:02.404Z,27.50
2023-05-14T14:29:34.523Z,27.55
2023-05-14T14:32:05.560Z,27.32
2023-05-14T14:34:36.566Z,27.49
2023-05-14T14:37:09.163Z,27.56
2023-05-14T14:39:40.619Z,27.75
2023-05-14T14:42:11.439Z,27.85
2023-05-14T14:44:42.905Z,27.90
2023-05-14T14:47:13.716Z,27.88
2023-05-14T14:50:00.690Z,27.75
2023-05-14T14:52:31.367Z,27.86
2023-05-14T14:55:01.914Z,27.99
2023-05-14T14:57:32.650Z,28.11
2023-05-14T15:00:03.844Z,27.87
2023-05-14T15:02:34.892Z,27.98
2023-05-14T15:05:10.283Z,28.08
2023-05-14T15:07:44.017Z,28.15
2023-05-14T15:10:14.739Z,28.29
2023-05-14T15:12:45.472Z,28.32
2023-05-14T15:15:18.969Z,28.36
2023-05-14T15:17:49.679Z,28.54
2023-05-14T15:20:20.405Z,28.51
2023-05-14T15:22:54.965Z,28.45
2023-05-14T15:25:29.934Z,28.60
2023-05-14T15:28:02.623Z,28.51
2023-05-14T15:30:33.406Z,28.38
2023-05-14T15:33:04.105Z,28.38
2023-05-14T15:35:37.850Z,28.47
2023-05-14T15:38:09.032Z,28.47
2023-05-14T15:40:39.930Z,28.36
2023-05-14T15:43:10.683Z,28.28
2023-05-14T15:45:41.396Z,28.34
2023-05-14T15:48:12.097Z,28.41
2023-05-14T15:50:42.968Z,28.32
2023-05-14T15:53:15.889Z,28.30
2023-05-14T15:55:46.896Z,28.24
2023-05-14T15:58:17.555Z,28.28
2023-05-14T16:00:48.344Z,28.38
2023-05-14T16:03:19.145Z,28.35
2023-05-14T16:05:49.947Z,28.43
2023-05-14T16:08:20.644Z,28.43
2023-05-14T16:10:51.601Z,28.49
2023-05-14T16:13:22.419Z,28.42
2023-05-14T16:15:53.279Z,28.48
2023-05-14T16:18:25.291Z,28.49
2023-05-14T16:20:56.109Z,28.60
2023-05-14T16:23:27.489Z,28.68
2023-05-14T16:25:58.258Z,28.67
2023-05-14T16:28:28.967Z,28.71
2023-05-14T16:31:01.414Z,28.75
2023-05-14T16:33:33.589Z,28.73
2023-05-14T16:36:07.416Z,28.83
2023-05-14T16:38:44.580Z,28.75
2023-05-14T16:41:19.391Z,28.49
2023-05-14T16:43:51.318Z,28.57
2023-05-14T16:46:24.945Z,28.47
2023-05-14T16:49:00.496Z,28.36
2023-05-14T16:51:31.933Z,28.56
2023-05-14T16:54:02.915Z,28.53
2023-05-14T16:56:33.813Z,28.60
2023-05-14T16:59:04.653Z,28.53
2023-05-14T17:01:36.266Z,28.53
2023-05-14T17:04:07.106Z,28.63
2023-05-14T17:06:37.803Z,28.59
2023-05-14T17:09:08.689Z,28.66
2023-05-14T17:11:39.636Z,28.73
2023-05-14T17:14:12.153Z,28.85
2023-05-14T17:16:43.215Z,28.88
2023-05-14T17:19:12.934Z,29.01
2023-05-14T17:21:50.460Z,28.96
2023-05-14T17:24:24.585Z,29.19
2023-05-14T17:26:56.626Z,29.17
2023-05-14T17:29:27.289Z,29.17
2023-05-14T17:31:58.137Z,29.26
2023-05-14T17:34:30.203Z,29.29
2023-05-14T17:37:01.400Z,29.39
2023-05-14T17:39:32.158Z,29.28
2023-05-14T17:42:03.803Z,29.15
2023-05-14T17:44:37.424Z,29.25
2023-05-14T17:47:11.912Z,29.44
2023-05-14T17:49:42.874Z,29.17
2023-05-14T17:52:14.379Z,29.25
2023-05-14T17:54:45.111Z,29.49
2023-05-14T17:57:15.978Z,29.29
2023-05-14T17:59:48.787Z,29.45
2023-05-14T18:02:19.522Z,29.38
2023-05-14T18:05:08.508Z,29.46
2023-05-14T18:07:42.661Z,29.30
2023-05-14T18:10:13.382Z,29.52
2023-05-14T18:12:44.300Z,29.49
2023-05-14T18:15:15.066Z,29.67
2023-05-14T18:17:47.183Z,29.58
2023-05-14T18:20:18.181Z,29.75
2023-05-14T18:22:52.506Z,29.80
2023-05-14T18:25:24.371Z,29.81
2023-05-14T18:27:55.419Z,29.93
2023-05-14T18:30:31.274Z,29.92
2023-05-14T18:33:01.855Z,29.92
2023-05-14T18:35:32.769Z,29.99
2023-05-14T18:38:04.149Z,30.13
2023-05-14T18:40:37.530Z,30.09
2023-05-14T18:43:08.264Z,30.20
2023-05-14T18:45:43.362Z,30.12
2023-05-14T18:48:14.264Z,30.29
2023-05-14T18:50:45.388Z,30.21
2023-05-14T18:53:17.690Z,30.28
2023-05-14T18:55:50.328Z,30.45
2023-05-14T18:58:24.427Z,30.46
2023-05-14T19:00:57.867Z,30.53
2023-05-14T19:03:28.648Z,30.53
2023-05-14T19:05:59.865Z,30.69
2023-05-14T19:08:30.669Z,30.74
2023-05-14T19:11:01.560Z,30.75
2023-05-14T19:13:32.314Z,30.88
2023-05-14T19:16:04.704Z,30.95
2023-05-14T19:18:35.400Z,30.90
2023-05-14T19:21:06.439Z,31.02
2023-05-14T19:23:37.630Z,31.06
2023-05-14T19:26:08.487Z,31.06
2023-05-14T19:28:40.492Z,31.18
2023-05-14T19:31:11.275Z,31.22
2023-05-14T19:33:41.990Z,31.29
2023-05-14T19:36:12.755Z,31.38
2023-05-14T19:38:43.699Z,31.42
2023-05-14T19:41:14.297Z,31.53
2023-05-14T19:43:45.185Z,31.61
2023-05-14T19:46:15.976Z,31.73
2023-05-14T19:48:48.559Z,31.77
2023-05-14T19:51:19.416Z,31.86
2023-05-14T19:53:50.179Z,31.91
2023-05-14T19:56:21.715Z,31.90
2023-05-14T19:58:52.559Z,32.06
2023-05-14T20:01:23.398Z,32.08
2023-05-14T20:03:54.249Z,32.09
2023-05-14T20:06:24.869Z,32.18
2023-05-14T20:08:56.594Z,32.22
2023-05-14T20:11:27.453Z,32.31
2023-05-14T20:13:58.168Z,32.50
2023-05-14T20:16:29.088Z,32.49
2023-05-14T20:18:59.810Z,32.59
2023-05-14T20:21:30.915Z,32.61
2023-05-14T20:24:01.636Z,32.71
2023-05-14T20:26:32.312Z,32.78
2023-05-14T20:29:02.872Z,32.80
2023-05-14T20:31:33.520Z,32.94
2023-05-14T20:34:04.175Z,33.03
2023-05-14T20:36:34.857Z,33.12
2023-05-14T20:39:08.791Z,33.28
2023-05-14T20:41:39.601Z,33.24
2023-05-14T20:44:10.393Z,33.33
2023-05-14T20:46:41.142Z,33.47
2023-05-14T20:49:11.747Z,33.53
2023-05-14T20:51:42.390Z,33.63
2023-05-14T20:54:13.045Z,33.71
2023-05-14T20:56:43.702Z,33.81
2023-05-14T20:59:14.394Z,33.91
2023-05-14T21:01:45.332Z,33.93
2023-05-14T21:04:16.411Z,34.09
2023-05-14T21:06:47.255Z,34.17
2023-05-14T21:09:17.887Z,34.19
2023-05-14T21:11:48.440Z,34.40
2023-05-14T21:14:19.193Z,34.41
2023-05-14T21:16:49.921Z,34.50
2023-05-14T21:19:20.930Z,34.54
2023-05-14T21:21:51.938Z,34.55
2023-05-14T21:24:22.558Z,34.78
2023-05-14T21:26:53.684Z,34.81
2023-05-14T21:29:24.603Z,34.84
2023-05-14T21:31:55.292Z,35.00
2023-05-14T21:34:26.070Z,35.08
2023-05-14T21:36:56.721Z,35.16
2023-05-14T21:39:27.336Z,35.22
2023-05-14T21:41:58.055Z,35.30
2023-05-14T21:44:28.847Z,35.29
2023-05-14T21:46:59.535Z,35.36
2023-05-14T21:49:30.187Z,35.49
2023-05-14T21:52:00.867Z,35.62
2023-05-14T21:54:31.534Z,35.73
2023-05-14T21:57:02.960Z,35.68
2023-05-14T21:59:34.534Z,35.75
2023-05-14T22:02:07.276Z,35.78
2023-05-14T22:04:39.090Z,35.97
2023-05-14T22:07:09.823Z,36.07
2023-05-14T22:09:40.796Z,36.09
2023-05-14T22:12:11.626Z,36.18
2023-05-14T22:14:42.686Z,36.27
2023-05-14T22:17:16.145Z,36.34
2023-05-14T22:19:46.859Z,36.39
2023-05-14T22:22:17.497Z,36.44
2023-05-14T22:24:48.263Z,36.49
2023-05-14T22:27:18.951Z,36.58
2023-05-14T22:29:49.654Z,36.62
2023-05-14T22:32:20.452Z,36.77
2023-05-14T22:34:51.353Z,36.75
2023-05-14T22:37:22.124Z,36.93
2023-05-14T22:39:52.859Z,36.94
2023-05-14T22:42:23.702Z,37.01
2023-05-14T22:44:54.476Z,37.05
2023-05-14T22:47:26.072Z,37.09
2023-05-14T22:49:56.878Z,37.24
2023-05-14T22:52:28.011Z,37.16
2023-05-14T22:54:58.670Z,37.25
2023-05-14T22:57:29.475Z,37.35
2023-05-14T23:00:00.087Z,37.44
2023-05-14T23:02:30.782Z,37.51
2023-05-14T23:05:01.575Z,37.62
2023-05-14T23:07:32.353Z,37.64
2023-05-14T23:10:03.284Z,37.72
2023-05-14T23:12:33.903Z,37.79
2023-05-14T23:15:04.684Z,37.94
2023-05-14T23:17:35.370Z,37.93
2023-05-14T23:20:06.918Z,38.12
2023-05-14T23:22:37.433Z,38.09
2023-05-14T23:25:09.013Z,38.19
2023-05-14T23:27:39.779Z,38.13
2023-05-14T23:30:11.615Z,38.24
2023-05-14T23:32:42.288Z,38.28
2023-05-14T23:35:12.985Z,38.41
2023-05-14T23:37:47.393Z,38.43
2023-05-14T23:40:18.443Z,38.50
2023-05-14T23:42:49.065Z,38.61
2023-05-14T23:45:19.976Z,38.63
2023-05-14T23:47:50.730Z,38.68
2023-05-14T23:50:21.429Z,38.75
2023-05-14T23:52:52.165Z,38.84
2023-05-14T23:55:23.379Z,38.91
2023-05-14T23:57:54.388Z,38.97
